createdAt,value
2019-06-07T00:00:40.137Z,1002.77
2019-06-07T00:01:36.271Z,1002.74
2019-06-07T00:02:35.262Z,1002.75
2019-06-07T00:03:35.269Z,1002.78
2019-06-07T00:04:35.238Z,1002.82
2019-06-07T00:05:35.234Z,1002.78
2019-06-07T00:06:35.213Z,1002.76
2019-06-07T00:07:35.200Z,1002.82
2019-06-07T00:08:35.208Z,1002.76
2019-06-07T00:09:35.178Z,1002.75
2019-06-07T00:10:37.035Z,1002.73
2019-06-07T00:11:35.153Z,1002.70
2019-06-07T00:12:35.142Z,1002.64
2019-06-07T00:13:35.147Z,1002.62
2019-06-07T00:14:35.117Z,1002.61
2019-06-07T00:15:35.105Z,1002.64
2019-06-07T00:16:35.093Z,1002.63
2019-06-07T00:17:35.100Z,1002.61
2019-06-07T00:18:35.086Z,1002.58
2019-06-07T00:19:35.057Z,1002.59
2019-06-07T00:20:35.048Z,1002.62
2019-06-07T00:22:13.472Z,1002.60
2019-06-07T00:22:36.020Z,1002.59
2019-06-07T00:23:35.027Z,1002.56
2019-06-07T00:24:34.997Z,1002.66
2019-06-07T00:25:34.983Z,1002.57
2019-06-07T00:26:56.273Z,1002.59
2019-06-07T00:27:35.957Z,1002.51
2019-06-07T00:28:34.966Z,1002.51
2019-06-07T00:29:34.937Z,1002.47
2019-06-07T00:30:45.952Z,1002.36
2019-06-07T00:31:35.910Z,1002.36
2019-06-07T00:32:34.900Z,1002.26
2019-06-07T00:33:34.905Z,1002.25
2019-06-07T00:34:34.875Z,1002.24
2019-06-07T00:35:34.863Z,1002.26
2019-06-07T00:36:34.853Z,1002.19
2019-06-07T00:37:34.838Z,1002.18
2019-06-07T00:38:34.848Z,1002.16
2019-06-07T00:39:34.814Z,1002.23
2019-06-07T00:40:34.803Z,1002.21
2019-06-07T00:41:34.824Z,1002.21
2019-06-07T00:42:34.777Z,1002.15
2019-06-07T00:43:34.766Z,1002.20
2019-06-07T00:44:34.773Z,1002.24
2019-06-07T00:45:34.743Z,1002.17
2019-06-07T00:46:34.730Z,1002.31
2019-06-07T00:47:34.721Z,1002.31
2019-06-07T00:48:34.705Z,1002.30
2019-06-07T00:49:41.121Z,1002.27
2019-06-07T00:50:35.680Z,1002.32
2019-06-07T00:51:49.896Z,1002.35
2019-06-07T00:53:13.968Z,1002.25
2019-06-07T00:53:35.644Z,1002.30
2019-06-07T00:54:34.655Z,1002.36
2019-06-07T00:55:34.623Z,1002.27
2019-06-07T00:56:34.611Z,1002.30
2019-06-07T00:57:34.598Z,1002.28
2019-06-07T00:58:34.588Z,1002.24
2019-06-07T00:59:34.600Z,1002.21
2019-06-07T01:00:34.565Z,1002.22
2019-06-07T01:01:34.551Z,1002.20
2019-06-07T01:02:34.569Z,1002.19
2019-06-07T01:03:34.527Z,1002.18
2019-06-07T01:04:34.515Z,1002.20
2019-06-07T01:05:34.520Z,1002.15
2019-06-07T01:06:34.491Z,1002.16
2019-06-07T01:07:34.479Z,1002.18
2019-06-07T01:08:34.467Z,1002.03
2019-06-07T01:09:34.455Z,1002.14
2019-06-07T01:10:52.156Z,1002.07
2019-06-07T01:11:35.470Z,1002.07
2019-06-07T01:12:34.423Z,1002.09
2019-06-07T01:13:34.406Z,1002.05
2019-06-07T01:14:34.397Z,1002.04
2019-06-07T01:15:34.403Z,1002.04
2019-06-07T01:16:55.290Z,1002.06
2019-06-07T01:17:50.157Z,1002.06
2019-06-07T01:18:39.332Z,1002.14
2019-06-07T01:19:35.338Z,1002.12
2019-06-07T01:20:34.349Z,1002.14
2019-06-07T01:21:34.316Z,1002.14
2019-06-07T01:22:34.309Z,1002.11
2019-06-07T01:24:04.926Z,1002.18
2019-06-07T01:24:35.277Z,1002.12
2019-06-07T01:25:34.323Z,1002.11
2019-06-07T01:26:34.273Z,1002.14
2019-06-07T01:27:34.253Z,1002.13
2019-06-07T01:28:34.231Z,1002.13
2019-06-07T01:29:34.219Z,1002.18
2019-06-07T01:30:34.264Z,1002.18
2019-06-07T01:31:34.213Z,1002.18
2019-06-07T01:32:34.184Z,1002.16
2019-06-07T01:33:50.210Z,1002.16
2019-06-07T01:34:35.160Z,1002.24
2019-06-07T01:35:34.147Z,1002.20
2019-06-07T01:36:34.154Z,1002.21
2019-06-07T01:37:34.126Z,1002.21
2019-06-07T01:38:34.116Z,1002.16
2019-06-07T01:39:34.102Z,1002.23
2019-06-07T01:40:34.105Z,1002.15
2019-06-07T01:41:34.096Z,1002.23
2019-06-07T01:42:34.069Z,1002.21
2019-06-07T01:43:34.055Z,1002.25
2019-06-07T01:44:34.044Z,1002.28
2019-06-07T01:45:34.030Z,1002.29
2019-06-07T01:46:34.043Z,1002.21
2019-06-07T01:47:34.007Z,1002.10
2019-06-07T01:48:49.024Z,1002.13
2019-06-07T01:49:34.981Z,1002.11
2019-06-07T01:50:33.972Z,1002.17
2019-06-07T01:51:35.368Z,1002.08
2019-06-07T01:52:33.945Z,1002.15
2019-06-07T01:53:33.935Z,1002.18
2019-06-07T01:54:58.158Z,1002.17
2019-06-07T01:55:34.910Z,1002.15
2019-06-07T01:56:33.902Z,1002.21
2019-06-07T01:57:45.562Z,1002.14
2019-06-07T01:58:34.875Z,1002.15
2019-06-07T01:59:33.868Z,1002.12
2019-06-07T02:00:33.854Z,1002.16
2019-06-07T02:01:35.156Z,1002.18
2019-06-07T02:02:33.852Z,1002.12
2019-06-07T02:03:33.835Z,1002.17
2019-06-07T02:04:33.884Z,1002.17
2019-06-07T02:05:33.795Z,1002.15
2019-06-07T02:06:33.783Z,1002.17
2019-06-07T02:07:33.827Z,1002.11
2019-06-07T02:08:34.559Z,1002.14
2019-06-07T02:09:33.758Z,1002.10
2019-06-07T02:10:34.009Z,1002.13
2019-06-07T02:11:33.808Z,1002.10
2019-06-07T02:12:42.332Z,1002.06
2019-06-07T02:13:34.715Z,1001.99
2019-06-07T02:14:34.044Z,1002.03
2019-06-07T02:15:36.627Z,1002.02
2019-06-07T02:16:33.663Z,1002.07
2019-06-07T02:17:33.649Z,1002.01
2019-06-07T02:18:35.037Z,1002.07
2019-06-07T02:19:33.809Z,1002.03
2019-06-07T02:20:34.647Z,1002.01
2019-06-07T02:21:34.541Z,1001.98
2019-06-07T02:22:33.592Z,1002.00
2019-06-07T02:23:33.816Z,1002.03
2019-06-07T02:24:36.164Z,1001.96
2019-06-07T02:25:42.953Z,1001.96
2019-06-07T02:26:34.544Z,1001.94
2019-06-07T02:27:33.533Z,1001.94
2019-06-07T02:28:44.773Z,1001.99
2019-06-07T02:29:34.512Z,1001.92
2019-06-07T02:30:46.068Z,1001.95
2019-06-07T02:31:39.168Z,1001.95
2019-06-07T02:32:36.785Z,1001.95
2019-06-07T02:33:39.591Z,1001.92
2019-06-07T02:34:38.742Z,1001.88
2019-06-07T02:35:40.712Z,1001.96
2019-06-07T02:36:41.080Z,1001.91
2019-06-07T02:37:37.051Z,1001.92
2019-06-07T02:38:37.271Z,1001.88
2019-06-07T02:39:38.258Z,1001.90
2019-06-07T02:40:37.178Z,1001.86
2019-06-07T02:41:39.219Z,1001.86
2019-06-07T02:42:37.987Z,1001.86
2019-06-07T02:43:36.992Z,1001.92
2019-06-07T02:44:39.020Z,1001.82
2019-06-07T02:45:42.222Z,1001.81
2019-06-07T02:46:45.417Z,1001.84
2019-06-07T02:47:37.665Z,1001.85
2019-06-07T02:48:39.552Z,1001.83
2019-06-07T02:49:41.185Z,1001.87
2019-06-07T02:50:38.391Z,1001.84
2019-06-07T02:51:40.715Z,1001.82
2019-06-07T02:52:39.877Z,1001.85
2019-06-07T02:53:39.973Z,1001.82
2019-06-07T02:54:39.549Z,1001.81
2019-06-07T02:56:10.661Z,1001.85
2019-06-07T02:56:44.434Z,1001.83
2019-06-07T02:57:36.950Z,1001.79
2019-06-07T02:58:40.665Z,1001.82
2019-06-07T03:00:04.457Z,1001.78
2019-06-07T03:01:00.591Z,1001.85
2019-06-07T03:01:41.189Z,1001.76
2019-06-07T03:02:40.796Z,1001.75
2019-06-07T03:03:39.557Z,1001.77
2019-06-07T03:04:41.305Z,1001.74
2019-06-07T03:05:36.415Z,1001.72
2019-06-07T03:06:39.288Z,1001.79
2019-06-07T03:07:39.056Z,1001.77
2019-06-07T03:08:36.626Z,1001.76
2019-06-07T03:09:34.997Z,1001.81
2019-06-07T03:10:34.793Z,1001.76
2019-06-07T03:11:36.940Z,1001.77
2019-06-07T03:12:34.024Z,1001.75
2019-06-07T03:13:34.913Z,1001.69
2019-06-07T03:14:33.913Z,1001.85
2019-06-07T03:15:44.677Z,1001.82
2019-06-07T03:16:37.295Z,1001.82
2019-06-07T03:17:37.825Z,1001.81
2019-06-07T03:18:36.255Z,1001.81
2019-06-07T03:19:36.495Z,1001.77
2019-06-07T03:20:34.575Z,1001.72
2019-06-07T03:21:33.883Z,1001.79
2019-06-07T03:22:37.971Z,1001.75
2019-06-07T03:23:36.051Z,1001.73
2019-06-07T03:24:35.585Z,1001.67
2019-06-07T03:25:37.005Z,1001.81
2019-06-07T03:26:42.524Z,1001.69
2019-06-07T03:27:41.531Z,1001.76
2019-06-07T03:28:37.063Z,1001.74
2019-06-07T03:29:34.429Z,1001.70
2019-06-07T03:30:48.046Z,1001.70
2019-06-07T03:31:41.480Z,1001.71
2019-06-07T03:32:39.103Z,1001.69
2019-06-07T03:33:41.169Z,1001.62
2019-06-07T03:34:39.283Z,1001.63
2019-06-07T03:35:35.320Z,1001.66
2019-06-07T03:36:34.715Z,1001.64
2019-06-07T03:37:37.646Z,1001.71
2019-06-07T03:38:35.307Z,1001.68
2019-06-07T03:39:33.741Z,1001.68
2019-06-07T03:40:36.896Z,1001.62
2019-06-07T03:41:44.843Z,1001.57
2019-06-07T03:42:34.828Z,1001.64
2019-06-07T03:43:35.956Z,1001.60
2019-06-07T03:44:36.377Z,1001.66
2019-06-07T03:45:36.024Z,1001.68
2019-06-07T03:46:35.160Z,1001.67
2019-06-07T03:47:36.529Z,1001.71
2019-06-07T03:48:36.375Z,1001.63
2019-06-07T03:49:36.462Z,1001.61
2019-06-07T03:50:38.242Z,1001.62
2019-06-07T03:51:35.692Z,1001.54
2019-06-07T03:52:38.197Z,1001.57
2019-06-07T03:53:34.821Z,1001.62
2019-06-07T03:54:34.860Z,1001.63
2019-06-07T03:55:37.777Z,1001.67
2019-06-07T03:56:35.408Z,1001.60
2019-06-07T03:58:27.493Z,1001.65
2019-06-07T03:58:41.281Z,1001.68
2019-06-07T03:59:38.676Z,1001.67
2019-06-07T04:00:36.636Z,1001.65
2019-06-07T04:01:34.822Z,1001.66
2019-06-07T04:02:33.911Z,1001.63
2019-06-07T04:03:43.570Z,1001.60
2019-06-07T04:04:37.822Z,1001.66
2019-06-07T04:05:38.828Z,1001.68
2019-06-07T04:06:36.144Z,1001.67
2019-06-07T04:07:36.084Z,1001.65
2019-06-07T04:08:34.463Z,1001.67
2019-06-07T04:09:35.597Z,1001.62
2019-06-07T04:10:52.077Z,1001.66
2019-06-07T04:11:35.074Z,1001.68
2019-06-07T04:12:38.641Z,1001.63
2019-06-07T04:13:34.842Z,1001.60
2019-06-07T04:14:32.890Z,1001.59
2019-06-07T04:15:36.046Z,1001.55
2019-06-07T04:16:36.779Z,1001.45
2019-06-07T04:17:34.657Z,1001.48
2019-06-07T04:18:33.084Z,1001.41
2019-06-07T04:19:35.052Z,1001.47
2019-06-07T04:20:35.786Z,1001.45
2019-06-07T04:21:35.126Z,1001.32
2019-06-07T04:22:38.823Z,1001.35
2019-06-07T04:23:37.420Z,1001.32
2019-06-07T04:24:36.569Z,1001.34
2019-06-07T04:25:37.053Z,1001.36
2019-06-07T04:26:35.062Z,1001.26
2019-06-07T04:27:33.083Z,1001.34
2019-06-07T04:29:27.340Z,1001.32
2019-06-07T04:29:47.910Z,1001.37
2019-06-07T04:30:36.519Z,1001.29
2019-06-07T04:31:33.732Z,1001.25
2019-06-07T04:32:33.851Z,1001.25
2019-06-07T04:33:37.047Z,1001.23
2019-06-07T04:34:37.508Z,1001.24
2019-06-07T04:35:34.815Z,1001.24
2019-06-07T04:36:45.670Z,1001.25
2019-06-07T04:37:33.589Z,1001.21
2019-06-07T04:38:36.136Z,1001.24
2019-06-07T04:39:34.015Z,1001.17
2019-06-07T04:40:33.802Z,1001.17
2019-06-07T04:41:33.670Z,1001.21
2019-06-07T04:42:35.053Z,1001.21
2019-06-07T04:43:33.537Z,1001.19
2019-06-07T04:44:35.028Z,1001.23
2019-06-07T04:45:40.585Z,1001.23
2019-06-07T04:46:35.181Z,1001.29
2019-06-07T04:47:33.844Z,1001.26
2019-06-07T04:48:33.357Z,1001.22
2019-06-07T04:49:33.435Z,1001.24
2019-06-07T04:50:35.377Z,1001.23
2019-06-07T04:51:33.897Z,1001.24
2019-06-07T04:52:33.393Z,1001.20
2019-06-07T04:53:35.366Z,1001.15
2019-06-07T04:54:33.455Z,1001.10
2019-06-07T04:55:33.914Z,1001.11
2019-06-07T04:56:33.798Z,1001.04
2019-06-07T04:57:34.824Z,1001.08
2019-06-07T04:58:33.258Z,1001.03
2019-06-07T05:00:04.309Z,1001.01
2019-06-07T05:00:53.993Z,1001.00
2019-06-07T05:01:34.358Z,1001.05
2019-06-07T05:02:32.031Z,1001.07
2019-06-07T05:03:36.095Z,1000.98
2019-06-07T05:04:33.199Z,1001.02
2019-06-07T05:05:31.930Z,1001.00
2019-06-07T05:06:34.856Z,1001.02
2019-06-07T05:07:32.987Z,1001.00
2019-06-07T05:08:33.443Z,1000.94
2019-06-07T05:09:32.630Z,1001.01
2019-06-07T05:10:35.074Z,1000.95
2019-06-07T05:11:33.977Z,1000.99
2019-06-07T05:12:32.726Z,1000.97
2019-06-07T05:13:37.348Z,1001.01
2019-06-07T05:14:33.204Z,1000.93
2019-06-07T05:15:32.068Z,1000.92
2019-06-07T05:16:35.207Z,1000.90
2019-06-07T05:17:33.232Z,1000.76
2019-06-07T05:18:33.725Z,1000.83
2019-06-07T05:19:35.216Z,1000.82
2019-06-07T05:20:34.204Z,1000.77
2019-06-07T05:21:59.173Z,1000.81
2019-06-07T05:22:34.906Z,1000.82
2019-06-07T05:24:35.599Z,1000.86
2019-06-07T05:25:34.076Z,1000.79
2019-06-07T05:26:33.031Z,1000.83
2019-06-07T05:27:33.866Z,1000.89
2019-06-07T05:28:32.589Z,1000.86
2019-06-07T05:29:33.354Z,1000.92
2019-06-07T05:31:36.825Z,1000.94
2019-06-07T05:32:34.259Z,1000.89
2019-06-07T05:33:35.150Z,1000.93
2019-06-07T05:34:34.065Z,1000.91
2019-06-07T05:35:32.982Z,1000.92
2019-06-07T05:36:31.532Z,1000.91
2019-06-07T05:37:33.515Z,1000.91
2019-06-07T05:38:31.343Z,1000.90
2019-06-07T05:39:32.085Z,1000.83
2019-06-07T05:40:32.968Z,1000.85
2019-06-07T05:41:32.283Z,1000.93
2019-06-07T05:42:32.128Z,1000.94
2019-06-07T05:43:35.002Z,1000.87
2019-06-07T05:44:32.253Z,1000.97
2019-06-07T05:45:32.325Z,1000.84
2019-06-07T05:46:33.902Z,1000.75
2019-06-07T05:47:32.215Z,1000.74
2019-06-07T05:48:31.784Z,1000.73
2019-06-07T05:49:32.913Z,1000.71
2019-06-07T05:50:41.998Z,1000.68
2019-06-07T05:51:32.296Z,1000.71
2019-06-07T05:52:33.188Z,1000.72
2019-06-07T05:53:31.674Z,1000.67
2019-06-07T05:54:34.678Z,1000.75
2019-06-07T05:55:31.126Z,1000.75
2019-06-07T05:56:31.114Z,1000.68
2019-06-07T05:57:31.100Z,1000.67
2019-06-07T05:58:31.087Z,1000.73
2019-06-07T05:59:31.096Z,1000.71
2019-06-07T06:00:31.068Z,1000.67
2019-06-07T06:01:45.057Z,1000.66
2019-06-07T06:02:34.616Z,1000.62
2019-06-07T06:03:34.591Z,1000.62
2019-06-07T06:04:31.037Z,1000.69
2019-06-07T06:05:37.475Z,1000.58
2019-06-07T06:06:31.994Z,1000.62
2019-06-07T06:07:30.983Z,1000.70
2019-06-07T06:08:31.016Z,1000.74
2019-06-07T06:09:30.978Z,1000.77
2019-06-07T06:10:30.948Z,1000.85
2019-06-07T06:11:45.837Z,1000.87
2019-06-07T06:12:38.242Z,1000.91
2019-06-07T06:13:31.913Z,1000.90
2019-06-07T06:14:30.961Z,1000.89
2019-06-07T06:15:42.277Z,1000.94
2019-06-07T06:16:31.893Z,1000.89
2019-06-07T06:17:30.866Z,1000.90
2019-06-07T06:18:30.854Z,1000.92
2019-06-07T06:19:30.865Z,1000.85
2019-06-07T06:20:33.832Z,1000.95
2019-06-07T06:21:31.817Z,1000.92
2019-06-07T06:22:30.813Z,1001.03
2019-06-07T06:23:30.800Z,1000.92
2019-06-07T06:24:30.787Z,1001.02
2019-06-07T06:25:33.448Z,1000.92
2019-06-07T06:26:30.762Z,1000.97
2019-06-07T06:28:03.335Z,1001.01
2019-06-07T06:28:31.739Z,1001.01
2019-06-07T06:29:30.727Z,1001.00
2019-06-07T06:30:30.784Z,1000.96
2019-06-07T06:31:30.726Z,1001.02
2019-06-07T06:32:41.623Z,1000.93
2019-06-07T06:33:34.859Z,1000.94
2019-06-07T06:34:30.670Z,1000.95
2019-06-07T06:35:30.674Z,1000.80
2019-06-07T06:36:30.646Z,1000.79
2019-06-07T06:37:30.635Z,1000.76
2019-06-07T06:38:31.466Z,1000.81
2019-06-07T06:39:30.611Z,1000.83
2019-06-07T06:40:30.638Z,1000.87
2019-06-07T06:41:30.586Z,1000.87
2019-06-07T06:42:30.577Z,1000.93
2019-06-07T06:43:30.563Z,1000.85
2019-06-07T06:44:30.555Z,1000.83
2019-06-07T06:45:30.542Z,1000.82
2019-06-07T06:46:39.018Z,1000.84
2019-06-07T06:47:31.516Z,1000.89
2019-06-07T06:48:30.529Z,1000.90
2019-06-07T06:49:30.495Z,1000.87
2019-06-07T06:50:30.484Z,1000.85
2019-06-07T06:51:30.494Z,1000.92
2019-06-07T06:52:30.463Z,1000.82
2019-06-07T06:53:30.450Z,1000.83
2019-06-07T06:54:40.734Z,1000.87
2019-06-07T06:55:31.427Z,1000.85
2019-06-07T06:56:30.433Z,1000.79
2019-06-07T06:57:30.404Z,1000.86
2019-06-07T06:59:18.446Z,1000.72
2019-06-07T06:59:39.132Z,1000.88
2019-06-07T07:00:43.678Z,1000.90
2019-06-07T07:01:31.377Z,1000.96
2019-06-07T07:02:30.348Z,1000.83
2019-06-07T07:03:56.469Z,1000.71
2019-06-07T07:04:31.322Z,1000.72
2019-06-07T07:05:30.313Z,1000.84
2019-06-07T07:06:30.319Z,1000.78
2019-06-07T07:07:30.351Z,1000.85
2019-06-07T07:08:30.279Z,1000.85
2019-06-07T07:09:30.270Z,1000.74
2019-06-07T07:10:30.257Z,1000.79
2019-06-07T07:11:30.263Z,1000.92
2019-06-07T07:12:30.238Z,1000.82
2019-06-07T07:13:30.222Z,1000.80
2019-06-07T07:14:30.211Z,1000.87
2019-06-07T07:15:30.199Z,1000.96
2019-06-07T07:16:30.215Z,1000.86
2019-06-07T07:17:47.817Z,1000.96
2019-06-07T07:18:31.166Z,1000.94
2019-06-07T07:19:30.154Z,1000.98
2019-06-07T07:20:30.205Z,1000.94
2019-06-07T07:21:30.148Z,1000.95
2019-06-07T07:22:30.122Z,1000.85
2019-06-07T07:23:30.119Z,1000.82
2019-06-07T07:24:30.102Z,1000.76
2019-06-07T07:25:30.087Z,1000.87
2019-06-07T07:26:30.095Z,1000.81
2019-06-07T07:27:30.068Z,1000.89
2019-06-07T07:28:30.054Z,1000.88
2019-06-07T07:29:30.042Z,1000.88
2019-06-07T07:30:36.817Z,1000.80
2019-06-07T07:31:31.036Z,1000.79
2019-06-07T07:32:30.009Z,1000.93
2019-06-07T07:34:23.966Z,1000.94
2019-06-07T07:34:35.658Z,1000.87
2019-06-07T07:35:30.973Z,1000.97
2019-06-07T07:36:39.291Z,1000.85
2019-06-07T07:37:30.970Z,1000.91
2019-06-07T07:38:29.975Z,1000.83
2019-06-07T07:39:29.934Z,1000.71
2019-06-07T07:40:56.956Z,1000.74
2019-06-07T07:41:30.909Z,1000.81
2019-06-07T07:42:29.920Z,1000.74
2019-06-07T07:43:29.897Z,1000.86
2019-06-07T07:44:29.877Z,1000.83
2019-06-07T07:45:29.868Z,1000.67
2019-06-07T07:46:30.342Z,1000.59
2019-06-07T07:47:29.861Z,1000.70
2019-06-07T07:48:29.837Z,1000.79
2019-06-07T07:49:29.827Z,1000.75
2019-06-07T07:50:29.814Z,1000.75
2019-06-07T07:51:29.805Z,1000.77
2019-06-07T07:52:29.813Z,1000.67
2019-06-07T07:53:47.911Z,1000.70
2019-06-07T07:54:30.768Z,1000.83
2019-06-07T07:55:29.827Z,1000.84
2019-06-07T07:56:29.749Z,1000.75
2019-06-07T07:57:29.757Z,1000.82
2019-06-07T07:58:29.728Z,1000.58
2019-06-07T07:59:41.762Z,1000.77
2019-06-07T08:00:52.503Z,1000.85
2019-06-07T08:01:30.694Z,1000.74
2019-06-07T08:02:29.706Z,1000.83
2019-06-07T08:03:29.676Z,1000.82
2019-06-07T08:05:13.045Z,1000.60
2019-06-07T08:05:42.574Z,1000.49
2019-06-07T08:06:30.660Z,1000.79
2019-06-07T08:07:30.454Z,1000.76
2019-06-07T08:08:29.623Z,1000.86
2019-06-07T08:09:29.614Z,1000.72
2019-06-07T08:10:29.604Z,1000.79
2019-06-07T08:11:29.594Z,1000.69
2019-06-07T08:12:29.582Z,1000.75
2019-06-07T08:13:29.589Z,1000.66
2019-06-07T08:14:29.572Z,1000.62
2019-06-07T08:15:29.552Z,1000.59
2019-06-07T08:16:29.541Z,1000.51
2019-06-07T08:17:29.529Z,1000.57
2019-06-07T08:18:29.539Z,1000.53
2019-06-07T08:19:29.508Z,1000.51
2019-06-07T08:20:29.500Z,1000.59
2019-06-07T08:21:29.489Z,1000.50
2019-06-07T08:22:29.484Z,1000.60
2019-06-07T08:23:29.521Z,1000.50
2019-06-07T08:24:29.461Z,1000.48
2019-06-07T08:25:29.451Z,1000.40
2019-06-07T08:26:29.476Z,1000.36
2019-06-07T08:27:29.432Z,1000.37
2019-06-07T08:28:29.442Z,1000.34
2019-06-07T08:29:44.182Z,1000.30
2019-06-07T08:31:30.392Z,1000.35
2019-06-07T08:32:29.383Z,1000.34
2019-06-07T08:33:29.392Z,1000.34
2019-06-07T08:34:29.365Z,1000.35
2019-06-07T08:36:05.814Z,1000.21
2019-06-07T08:36:41.427Z,1000.24
2019-06-07T08:38:14.022Z,1000.28
2019-06-07T08:38:46.962Z,1000.22
2019-06-07T08:39:30.316Z,1000.26
2019-06-07T08:40:29.521Z,1000.25
2019-06-07T08:41:29.298Z,1000.22
2019-06-07T08:42:36.939Z,1000.05
2019-06-07T08:43:30.301Z,1000.13
2019-06-07T08:44:29.274Z,1000.05
2019-06-07T08:45:29.266Z,1000.04
2019-06-07T08:46:29.255Z,1000.01
2019-06-07T08:47:29.249Z,1000.05
2019-06-07T08:48:30.358Z,999.93
2019-06-07T08:49:29.229Z,999.98
2019-06-07T08:50:29.224Z,999.96
2019-06-07T08:51:29.214Z,999.96
2019-06-07T08:52:29.206Z,999.89
2019-06-07T08:53:29.216Z,999.77
2019-06-07T08:54:29.181Z,999.85
2019-06-07T08:55:29.202Z,999.99
2019-06-07T08:56:29.188Z,999.86
2019-06-07T08:57:29.156Z,999.84
2019-06-07T08:58:29.174Z,999.79
2019-06-07T08:59:29.136Z,999.72
2019-06-07T09:00:45.385Z,999.82
2019-06-07T09:01:30.116Z,999.78
2019-06-07T09:02:29.110Z,999.80
2019-06-07T09:03:29.100Z,999.83
2019-06-07T09:04:29.128Z,999.76
2019-06-07T09:05:29.148Z,999.78
2019-06-07T09:07:30.064Z,999.76
2019-06-07T09:08:30.962Z,999.75
2019-06-07T09:09:29.069Z,999.68
2019-06-07T09:10:29.043Z,999.72
2019-06-07T09:11:29.033Z,999.62
2019-06-07T09:12:29.024Z,999.62
2019-06-07T09:13:29.015Z,999.65
2019-06-07T09:14:29.035Z,999.73
2019-06-07T09:15:28.998Z,999.57
2019-06-07T09:16:28.992Z,999.60
2019-06-07T09:17:28.984Z,999.59
2019-06-07T09:18:42.691Z,999.65
2019-06-07T09:19:29.984Z,999.60
2019-06-07T09:20:36.663Z,999.62
2019-06-07T09:21:29.948Z,999.59
2019-06-07T09:22:28.939Z,999.53
2019-06-07T09:23:28.936Z,999.46
2019-06-07T09:24:28.940Z,999.48
2019-06-07T09:25:28.913Z,999.47
2019-06-07T09:26:28.906Z,999.23
2019-06-07T09:27:28.898Z,999.41
2019-06-07T09:28:28.910Z,999.44
2019-06-07T09:29:28.901Z,999.41
2019-06-07T09:30:28.869Z,999.33
2019-06-07T09:31:51.109Z,999.30
2019-06-07T09:32:29.853Z,999.30
2019-06-07T09:33:28.842Z,999.17
2019-06-07T09:34:28.918Z,999.23
2019-06-07T09:35:28.881Z,999.24
2019-06-07T09:36:28.818Z,999.17
2019-06-07T09:38:29.795Z,999.28
2019-06-07T09:39:28.786Z,999.14
2019-06-07T09:40:28.799Z,999.14
2019-06-07T09:41:46.919Z,999.10
2019-06-07T09:42:29.755Z,999.14
2019-06-07T09:44:00.853Z,999.03
2019-06-07T09:44:29.738Z,999.02
2019-06-07T09:45:28.780Z,999.08
2019-06-07T09:46:28.721Z,998.96
2019-06-07T09:47:32.413Z,998.97
2019-06-07T09:49:32.912Z,998.95
2019-06-07T09:50:28.701Z,998.84
2019-06-07T09:51:28.673Z,998.88
2019-06-07T09:52:28.663Z,998.81
2019-06-07T09:53:28.653Z,998.91
2019-06-07T09:55:03.129Z,998.85
2019-06-07T09:55:29.849Z,998.86
2019-06-07T09:56:28.624Z,998.78
2019-06-07T09:57:28.616Z,998.80
2019-06-07T09:58:51.303Z,998.74
2019-06-07T09:59:29.598Z,998.73
2019-06-07T10:00:43.182Z,998.87
2019-06-07T10:01:29.578Z,998.74
2019-06-07T10:02:28.570Z,998.69
2019-06-07T10:03:28.561Z,998.63
2019-06-07T10:04:31.548Z,998.74
2019-06-07T10:05:28.561Z,998.48
2019-06-07T10:06:28.534Z,998.56
2019-06-07T10:07:31.623Z,998.52
2019-06-07T10:11:28.486Z,998.49
2019-06-07T10:12:28.477Z,998.43
2019-06-07T10:13:28.561Z,998.42
2019-06-07T10:14:28.460Z,998.48
2019-06-07T10:15:28.450Z,998.49
2019-06-07T10:16:28.459Z,998.44
2019-06-07T10:17:28.429Z,998.37
2019-06-07T10:18:28.419Z,998.33
2019-06-07T10:19:28.414Z,998.30
2019-06-07T10:20:28.404Z,998.32
2019-06-07T10:21:28.413Z,998.29
2019-06-07T10:22:28.386Z,998.27
2019-06-07T10:23:28.375Z,998.22
2019-06-07T10:24:28.366Z,998.11
2019-06-07T10:25:28.355Z,998.11
2019-06-07T10:26:28.366Z,998.18
2019-06-07T10:27:28.337Z,998.09
2019-06-07T10:28:28.331Z,998.08
2019-06-07T10:29:28.318Z,998.10
2019-06-07T10:30:28.309Z,998.06
2019-06-07T10:31:28.317Z,997.97
2019-06-07T10:32:28.292Z,997.88
2019-06-07T10:33:28.282Z,997.89
2019-06-07T10:34:28.277Z,997.91
2019-06-07T10:35:28.266Z,997.81
2019-06-07T10:36:28.271Z,997.84
2019-06-07T10:37:28.242Z,997.79
2019-06-07T10:38:28.235Z,997.79
2019-06-07T10:39:28.225Z,997.65
2019-06-07T10:40:28.217Z,997.70
2019-06-07T10:41:28.227Z,997.85
2019-06-07T10:42:28.197Z,997.90
2019-06-07T10:43:28.186Z,997.82
2019-06-07T10:44:28.178Z,997.92
2019-06-07T10:45:28.172Z,997.87
2019-06-07T10:46:28.157Z,997.65
2019-06-07T10:47:28.165Z,997.46
2019-06-07T10:48:28.146Z,997.39
2019-06-07T10:49:28.128Z,997.45
2019-06-07T10:50:28.118Z,997.43
2019-06-07T10:51:28.110Z,997.59
2019-06-07T10:52:28.116Z,997.24
2019-06-07T10:53:28.089Z,997.85
2019-06-07T10:54:30.650Z,997.87
2019-06-07T10:55:28.069Z,997.64
2019-06-07T10:56:28.058Z,997.17
2019-06-07T10:57:28.069Z,997.22
2019-06-07T10:58:28.040Z,997.14
2019-06-07T10:59:28.025Z,997.13
2019-06-07T11:00:28.023Z,997.15
2019-06-07T11:01:28.011Z,997.15
2019-06-07T11:02:28.042Z,997.17
2019-06-07T11:03:27.984Z,997.43
2019-06-07T11:04:27.975Z,997.70
2019-06-07T11:05:27.962Z,997.66
2019-06-07T11:06:27.959Z,997.62
2019-06-07T11:07:27.961Z,997.66
2019-06-07T11:08:27.932Z,997.62
2019-06-07T11:09:27.923Z,997.67
2019-06-07T11:10:27.910Z,997.67
2019-06-07T11:11:27.901Z,997.77
2019-06-07T11:12:27.907Z,997.78
2019-06-07T11:13:27.879Z,997.66
2019-06-07T11:14:27.871Z,997.66
2019-06-07T11:15:27.863Z,997.70
2019-06-07T11:16:27.866Z,997.87
2019-06-07T11:17:27.898Z,997.24
2019-06-07T11:18:27.847Z,997.35
2019-06-07T11:19:27.821Z,997.72
2019-06-07T11:20:27.811Z,997.32
2019-06-07T11:21:27.800Z,997.22
2019-06-07T11:22:27.795Z,997.11
2019-06-07T11:23:27.798Z,997.63
2019-06-07T11:24:27.768Z,997.29
2019-06-07T11:25:27.758Z,997.50
2019-06-07T11:26:27.748Z,997.39
2019-06-07T11:27:27.736Z,997.21
2019-06-07T11:28:27.747Z,997.00
2019-06-07T11:29:27.717Z,997.25
2019-06-07T11:30:27.705Z,997.24
2019-06-07T11:31:27.696Z,997.26
2019-06-07T11:32:27.685Z,997.08
2019-06-07T11:33:27.699Z,997.16
2019-06-07T11:34:27.672Z,997.21
2019-06-07T11:35:27.652Z,997.07
2019-06-07T11:36:27.642Z,997.10
2019-06-07T11:37:27.631Z,997.03
2019-06-07T11:38:27.647Z,997.19
2019-06-07T11:39:27.611Z,997.09
2019-06-07T11:40:34.847Z,997.09
2019-06-07T11:41:28.587Z,997.01
2019-06-07T11:42:27.578Z,996.93
2019-06-07T11:43:27.586Z,996.91
2019-06-07T11:44:27.560Z,996.85
2019-06-07T11:45:27.544Z,996.80
2019-06-07T11:46:27.539Z,996.78
2019-06-07T11:47:27.524Z,996.80
2019-06-07T11:48:27.544Z,996.75
2019-06-07T11:49:27.503Z,996.78
2019-06-07T11:50:27.497Z,996.77
2019-06-07T11:51:27.485Z,996.75
2019-06-07T11:52:27.472Z,996.71
2019-06-07T11:53:27.481Z,996.72
2019-06-07T11:54:27.454Z,996.69
2019-06-07T11:55:27.461Z,996.67
2019-06-07T11:56:27.441Z,996.54
2019-06-07T11:57:27.423Z,996.56
2019-06-07T11:58:27.466Z,996.39
2019-06-07T11:59:27.407Z,996.43
2019-06-07T12:00:27.407Z,996.46
2019-06-07T12:01:27.384Z,996.49
2019-06-07T12:02:27.376Z,996.48
2019-06-07T12:03:27.382Z,996.45
2019-06-07T12:04:34.560Z,996.45
2019-06-07T12:05:28.360Z,996.45
2019-06-07T12:06:27.350Z,996.35
2019-06-07T12:07:28.492Z,996.40
2019-06-07T12:08:34.397Z,996.31
2019-06-07T12:09:28.101Z,996.21
2019-06-07T12:10:39.527Z,996.24
2019-06-07T12:11:28.280Z,996.25
2019-06-07T12:12:27.277Z,996.26
2019-06-07T12:13:27.264Z,996.28
2019-06-07T12:14:27.269Z,996.20
2019-06-07T12:15:27.245Z,996.18
2019-06-07T12:16:27.233Z,996.25
2019-06-07T12:17:27.223Z,996.19
2019-06-07T12:18:27.213Z,996.12
2019-06-07T12:19:27.219Z,996.20
2019-06-07T12:20:27.191Z,996.17
2019-06-07T12:21:27.181Z,996.06